createdAt,value
2022-11-10T00:00:44.632Z,13.00
2022-11-10T00:06:07.550Z,12.57
2022-11-10T00:11:28.490Z,12.65
2022-11-10T00:17:01.674Z,13.68
2022-11-10T00:22:25.906Z,15.10
2022-11-10T00:27:47.040Z,11.25
2022-11-10T00:33:08.086Z,14.52
2022-11-10T00:38:29.198Z,14.20
2022-11-10T00:43:50.724Z,13.65
2022-11-10T00:49:12.060Z,14.90
2022-11-10T00:54:33.016Z,15.50
2022-11-10T00:59:54.787Z,15.98
2022-11-10T01:05:15.734Z,14.55
2022-11-10T01:10:37.508Z,14.25
2022-11-10T01:16:03.390Z,14.73
2022-11-10T01:21:25.010Z,14.23
2022-11-10T01:26:46.203Z,15.60
2022-11-10T01:32:07.338Z,14.13
2022-11-10T01:37:28.593Z,14.88
2022-11-10T01:42:53.243Z,16.85
2022-11-10T01:48:22.349Z,16.88
2022-11-10T01:53:46.010Z,14.40
2022-11-10T01:59:11.775Z,14.82
2022-11-10T02:04:34.017Z,16.02
2022-11-10T02:09:55.409Z,13.48
2022-11-10T02:15:18.458Z,14.68
2022-11-10T02:20:39.603Z,14.98
2022-11-10T02:26:01.998Z,14.52
2022-11-10T02:31:22.990Z,13.07
2022-11-10T02:36:44.201Z,12.95
2022-11-10T02:42:10.669Z,13.73
2022-11-10T02:47:33.472Z,12.55
2022-11-10T02:52:54.601Z,14.25
2022-11-10T02:58:15.624Z,14.55
2022-11-10T03:03:37.005Z,15.02
2022-11-10T03:08:58.089Z,12.73
2022-11-10T03:14:19.272Z,14.18
2022-11-10T03:19:40.453Z,14.90
2022-11-10T03:25:01.838Z,11.93
2022-11-10T03:30:23.073Z,13.88
2022-11-10T03:35:44.271Z,12.75
2022-11-10T03:41:21.059Z,12.88
2022-11-10T03:46:43.587Z,11.85
2022-11-10T03:52:05.232Z,13.88
2022-11-10T03:57:26.366Z,10.95
2022-11-10T04:02:47.387Z,11.27
2022-11-10T04:08:33.100Z,11.82
2022-11-10T04:14:12.517Z,11.88
2022-11-10T04:19:33.530Z,11.27
2022-11-10T04:24:54.995Z,11.85
2022-11-10T04:30:16.251Z,11.70
2022-11-10T04:35:37.554Z,12.13
2022-11-10T04:40:58.717Z,11.68
2022-11-10T04:46:26.784Z,12.23
2022-11-10T04:51:47.804Z,11.48
2022-11-10T04:57:09.092Z,13.20
2022-11-10T05:02:30.133Z,12.38
2022-11-10T05:07:51.019Z,12.30
2022-11-10T05:13:12.369Z,10.40
2022-11-10T05:18:33.368Z,9.50
2022-11-10T05:23:54.495Z,12.23
2022-11-10T05:29:15.404Z,10.65
2022-11-10T05:34:36.768Z,12.45
2022-11-10T05:39:57.825Z,9.93
2022-11-10T05:45:20.487Z,10.98
2022-11-10T05:50:42.428Z,10.02
2022-11-10T05:56:03.671Z,10.23
2022-11-10T06:01:24.954Z,11.68
2022-11-10T06:06:46.131Z,11.15
2022-11-10T06:12:07.753Z,12.05
2022-11-10T06:17:29.403Z,11.38
2022-11-10T06:23:05.383Z,12.05
2022-11-10T06:28:26.171Z,10.73
2022-11-10T06:33:49.525Z,9.85
2022-11-10T06:39:11.082Z,11.15
2022-11-10T06:44:32.044Z,10.32
2022-11-10T06:49:53.002Z,10.43
2022-11-10T06:55:14.139Z,12.43
2022-11-10T07:00:35.438Z,11.00
2022-11-10T07:05:56.736Z,13.73
2022-11-10T07:11:17.970Z,12.00
2022-11-10T07:16:39.219Z,11.07
2022-11-10T07:22:00.412Z,11.98
2022-11-10T07:27:21.727Z,12.23
2022-11-10T07:32:42.553Z,11.50
2022-11-10T07:38:06.456Z,11.40
2022-11-10T07:43:27.381Z,11.20
2022-11-10T07:48:48.512Z,10.95
2022-11-10T07:54:09.962Z,11.20
2022-11-10T07:59:30.991Z,10.40
2022-11-10T08:04:52.513Z,10.45
2022-11-10T08:10:13.518Z,9.23
2022-11-10T08:15:35.241Z,10.80
2022-11-10T08:20:56.061Z,9.50
2022-11-10T08:26:18.226Z,10.82
2022-11-10T08:31:39.674Z,10.40
2022-11-10T08:37:00.487Z,10.35
2022-11-10T08:42:21.819Z,11.02
2022-11-10T08:47:45.175Z,10.77
2022-11-10T08:53:08.723Z,11.50
2022-11-10T08:58:29.870Z,10.80
2022-11-10T09:03:51.125Z,10.55
2022-11-10T09:09:12.293Z,11.05
2022-11-10T09:14:33.751Z,11.40
2022-11-10T09:19:54.591Z,9.98
2022-11-10T09:25:15.868Z,9.55
2022-11-10T09:30:36.903Z,11.23
2022-11-10T09:36:00.161Z,10.90
2022-11-10T09:41:21.291Z,11.38
2022-11-10T09:47:05.291Z,10.55
2022-11-10T09:52:28.235Z,11.35
2022-11-10T09:57:53.840Z,10.27
2022-11-10T10:03:20.587Z,13.02
2022-11-10T10:09:12.739Z,10.85
2022-11-10T10:14:52.938Z,10.98
2022-11-10T10:20:24.116Z,11.25
2022-11-10T10:25:46.473Z,12.45
2022-11-10T10:31:31.239Z,13.10
2022-11-10T10:36:52.443Z,12.25
2022-11-10T10:42:39.149Z,11.38
2022-11-10T10:48:01.770Z,13.07
2022-11-10T10:53:26.177Z,12.00
2022-11-10T10:58:54.334Z,12.13
2022-11-10T11:04:37.638Z,10.48
2022-11-10T11:10:02.108Z,10.80
2022-11-10T11:15:30.760Z,12.55
2022-11-10T11:21:07.646Z,10.55
2022-11-10T11:26:28.736Z,11.45
2022-11-10T11:31:55.955Z,10.70
2022-11-10T11:37:36.764Z,14.32
2022-11-10T11:43:16.641Z,12.45
2022-11-10T11:48:46.617Z,12.82
2022-11-10T11:54:19.949Z,12.93
2022-11-10T11:59:40.916Z,11.65
2022-11-10T12:05:17.053Z,12.05
2022-11-10T12:11:08.672Z,12.63
2022-11-10T12:16:32.196Z,10.27
2022-11-10T12:22:14.410Z,12.90
2022-11-10T12:27:40.226Z,9.93
2022-11-10T12:33:06.299Z,11.30
2022-11-10T12:38:34.771Z,11.65
2022-11-10T12:44:16.768Z,10.05
2022-11-10T12:49:40.007Z,11.18
2022-11-10T12:55:01.124Z,10.80
2022-11-10T13:00:28.953Z,11.75
2022-11-10T13:05:56.565Z,12.07
2022-11-10T13:11:17.696Z,10.35
2022-11-10T13:16:39.240Z,13.40
2022-11-10T13:22:03.981Z,10.87
2022-11-10T13:27:33.860Z,11.43
2022-11-10T13:32:55.043Z,8.18
2022-11-10T13:38:42.584Z,10.35
2022-11-10T13:44:03.850Z,11.40
2022-11-10T13:49:52.297Z,10.68
2022-11-10T13:55:21.198Z,11.93
2022-11-10T14:00:42.107Z,10.90
2022-11-10T14:06:10.464Z,11.15
2022-11-10T14:11:36.765Z,10.90
2022-11-10T14:16:58.899Z,10.50
2022-11-10T14:22:39.997Z,9.63
2022-11-10T14:28:01.497Z,10.15
2022-11-10T14:33:24.512Z,9.07
2022-11-10T14:38:45.682Z,10.63
2022-11-10T14:44:08.277Z,11.10
2022-11-10T14:49:29.161Z,10.70
2022-11-10T14:54:50.531Z,9.90
2022-11-10T15:00:19.136Z,9.70
2022-11-10T15:05:40.562Z,10.95
2022-11-10T15:11:02.280Z,10.20
2022-11-10T15:16:27.352Z,8.40
2022-11-10T15:21:48.703Z,8.23
2022-11-10T15:27:15.956Z,9.18
2022-11-10T15:32:42.396Z,9.43
2022-11-10T15:38:05.098Z,8.27
2022-11-10T15:43:29.558Z,8.27
2022-11-10T15:48:52.026Z,9.40
2022-11-10T15:54:13.164Z,8.18
2022-11-10T15:59:34.310Z,9.38
2022-11-10T16:04:59.604Z,7.32
2022-11-10T16:10:21.445Z,10.70
2022-11-10T16:15:43.527Z,8.95
2022-11-10T16:21:04.668Z,8.82
2022-11-10T16:26:26.533Z,8.02
2022-11-10T16:31:47.854Z,8.75
2022-11-10T16:37:12.443Z,7.85
2022-11-10T16:42:33.857Z,7.40
2022-11-10T16:47:55.210Z,8.68
2022-11-10T16:53:18.575Z,8.70
2022-11-10T16:58:39.896Z,9.52
2022-11-10T17:04:01.960Z,8.98
2022-11-10T17:09:24.172Z,8.45
2022-11-10T17:14:45.096Z,9.90
2022-11-10T17:20:07.602Z,9.35
2022-11-10T17:25:30.797Z,9.15
2022-11-10T17:30:53.320Z,8.18
2022-11-10T17:36:19.950Z,8.35
2022-11-10T17:41:40.986Z,8.63
2022-11-10T17:47:01.982Z,7.90
2022-11-10T17:52:23.128Z,7.10
2022-11-10T17:57:44.380Z,9.07
2022-11-10T18:03:09.128Z,9.85
2022-11-10T18:08:30.716Z,9.15
2022-11-10T18:13:51.882Z,9.10
2022-11-10T18:19:13.035Z,9.05
2022-11-10T18:24:34.249Z,10.13
2022-11-10T18:29:56.249Z,9.50
2022-11-10T18:35:18.191Z,11.73
2022-11-10T18:40:39.363Z,11.15
2022-11-10T18:46:00.434Z,10.32
2022-11-10T18:51:21.519Z,9.02
2022-11-10T18:56:42.739Z,11.23
2022-11-10T19:02:03.850Z,11.13
2022-11-10T19:07:25.017Z,12.10
2022-11-10T19:12:45.953Z,11.85
2022-11-10T19:18:07.291Z,10.10
2022-11-10T19:23:28.614Z,9.93
2022-11-10T19:28:49.491Z,11.15
2022-11-10T19:34:10.737Z,10.55
2022-11-10T19:39:31.989Z,11.68
2022-11-10T19:44:53.263Z,11.82
2022-11-10T19:50:14.189Z,12.27
2022-11-10T19:55:36.124Z,10.05
2022-11-10T20:00:57.597Z,9.20
2022-11-10T20:06:23.469Z,11.23
2022-11-10T20:11:46.511Z,11.30
2022-11-10T20:17:07.862Z,11.73
2022-11-10T20:22:28.988Z,11.38
2022-11-10T20:27:50.296Z,11.45
2022-11-10T20:33:11.900Z,10.25
2022-11-10T20:38:32.978Z,9.98
2022-11-10T20:43:55.288Z,12.13
2022-11-10T20:49:16.546Z,9.23
2022-11-10T20:54:37.646Z,10.15
2022-11-10T20:59:58.576Z,11.25
2022-11-10T21:05:19.937Z,10.63
2022-11-10T21:10:41.713Z,11.02
2022-11-10T21:16:05.017Z,9.68
2022-11-10T21:21:28.204Z,10.68
2022-11-10T21:26:49.572Z,11.07
2022-11-10T21:32:10.715Z,9.98
2022-11-10T21:37:31.536Z,12.13
2022-11-10T21:42:56.114Z,11.98
2022-11-10T21:48:17.506Z,11.23
2022-11-10T21:53:42.342Z,11.32
2022-11-10T21:59:03.470Z,11.25
2022-11-10T22:04:24.652Z,10.85
2022-11-10T22:10:04.376Z,12.05
2022-11-10T22:15:44.095Z,11.65
2022-11-10T22:21:06.222Z,9.98
2022-11-10T22:26:27.862Z,12.32
2022-11-10T22:31:49.533Z,10.05
2022-11-10T22:37:10.865Z,12.52
2022-11-10T22:42:50.634Z,10.48
2022-11-10T22:48:26.805Z,10.88
2022-11-10T22:53:47.820Z,10.88
2022-11-10T22:59:09.638Z,8.10
2022-11-10T23:04:30.596Z,8.38
2022-11-10T23:09:51.705Z,8.77
2022-11-10T23:15:12.883Z,9.43
2022-11-10T23:20:33.562Z,9.05
2022-11-10T23:25:59.360Z,8.15
2022-11-10T23:31:23.590Z,7.60
2022-11-10T23:36:44.485Z,8.10
2022-11-10T23:42:05.770Z,8.25
2022-11-10T23:47:26.780Z,8.05
2022-11-10T23:52:48.094Z,7.22
2022-11-10T23:58:09.783Z,7.82
